createdAt,value
2023-04-13T00:01:12.399Z,92.10
2023-04-13T00:03:42.786Z,92.10
2023-04-13T00:06:12.124Z,92.10
2023-04-13T00:08:43.852Z,92.20
2023-04-13T00:11:14.537Z,92.20
2023-04-13T00:13:43.933Z,92.30
2023-04-13T00:16:14.784Z,92.30
2023-04-13T00:18:44.271Z,92.30
2023-04-13T00:21:13.654Z,92.20
2023-04-13T00:23:42.949Z,92.20
2023-04-13T00:26:12.213Z,92.10
2023-04-13T00:28:42.058Z,92.10
2023-04-13T00:31:11.852Z,92.10
2023-04-13T00:33:42.529Z,92.00
2023-04-13T00:36:11.920Z,92.10
2023-04-13T00:38:45.924Z,92.10
2023-04-13T00:41:15.289Z,92.10
2023-04-13T00:43:45.894Z,92.10
2023-04-13T00:46:17.321Z,92.10
2023-04-13T00:48:49.358Z,92.00
2023-04-13T00:51:19.965Z,92.00
2023-04-13T00:53:50.632Z,92.00
2023-04-13T00:56:23.923Z,91.90
2023-04-13T00:58:53.379Z,91.80
2023-04-13T01:01:22.721Z,91.80
2023-04-13T01:03:54.532Z,91.70
2023-04-13T01:06:42.916Z,91.70
2023-04-13T01:09:20.369Z,91.50
2023-04-13T01:12:20.170Z,91.50
2023-04-13T01:15:14.387Z,91.30
2023-04-13T01:17:53.233Z,91.20
2023-04-13T01:20:23.877Z,91.20
2023-04-13T01:23:10.279Z,91.10
2023-04-13T01:26:08.067Z,91.00
2023-04-13T01:28:39.948Z,90.80
2023-04-13T01:31:12.662Z,90.60
2023-04-13T01:33:43.189Z,90.60
2023-04-13T01:36:14.084Z,90.40
2023-04-13T01:38:43.338Z,90.30
2023-04-13T01:41:16.530Z,90.30
2023-04-13T01:43:46.372Z,90.10
2023-04-13T01:46:16.249Z,89.90
2023-04-13T01:48:57.658Z,89.60
2023-04-13T01:51:35.326Z,89.30
2023-04-13T01:54:17.244Z,89.00
2023-04-13T01:56:46.888Z,88.70
2023-04-13T01:59:20.333Z,88.50
2023-04-13T02:01:49.896Z,88.40
2023-04-13T02:04:19.499Z,88.00
2023-04-13T02:06:49.325Z,88.40
2023-04-13T02:09:18.975Z,88.00
2023-04-13T02:11:49.027Z,87.60
2023-04-13T02:14:18.207Z,87.50
2023-04-13T02:16:47.593Z,86.80
2023-04-13T02:19:16.938Z,86.50
2023-04-13T02:21:47.104Z,86.70
2023-04-13T02:24:16.345Z,86.30
2023-04-13T02:26:45.513Z,85.90
2023-04-13T02:29:14.649Z,85.10
2023-04-13T02:31:46.280Z,85.20
2023-04-13T02:34:15.568Z,85.00
2023-04-13T02:36:46.041Z,85.20
2023-04-13T02:39:15.357Z,84.80
2023-04-13T02:41:44.850Z,84.70
2023-04-13T02:44:14.020Z,84.30
2023-04-13T02:46:43.216Z,83.60
2023-04-13T02:49:12.634Z,83.90
2023-04-13T02:51:47.462Z,83.40
2023-04-13T02:54:19.722Z,83.10
2023-04-13T02:56:51.706Z,82.80
2023-04-13T02:59:21.250Z,82.70
2023-04-13T03:01:51.205Z,82.10
2023-04-13T03:04:23.482Z,82.00
2023-04-13T03:06:56.217Z,81.50
2023-04-13T03:09:29.321Z,81.80
2023-04-13T03:11:58.837Z,81.80
2023-04-13T03:14:30.878Z,81.30
2023-04-13T03:17:00.885Z,80.80
2023-04-13T03:19:31.116Z,79.80
2023-04-13T03:22:06.364Z,80.20
2023-04-13T03:24:58.977Z,80.30
2023-04-13T03:27:36.064Z,80.10
2023-04-13T03:30:12.892Z,79.50
2023-04-13T03:32:45.062Z,78.30
2023-04-13T03:35:14.376Z,77.20
2023-04-13T03:37:51.638Z,76.50
2023-04-13T03:40:21.936Z,75.80
2023-04-13T03:42:53.864Z,75.60
2023-04-13T03:48:10.703Z,75.60
2023-04-13T03:50:44.546Z,76.50
2023-04-13T03:53:19.735Z,76.30
2023-04-13T03:55:51.976Z,75.40
2023-04-13T03:58:24.367Z,74.80
2023-04-13T04:00:57.022Z,74.40
2023-04-13T04:03:32.071Z,74.40
2023-04-13T04:06:04.551Z,74.30
2023-04-13T04:08:34.568Z,73.60
2023-04-13T04:11:07.858Z,73.40
2023-04-13T04:13:39.866Z,73.20
2023-04-13T04:16:12.845Z,73.40
2023-04-13T04:18:49.478Z,72.80
2023-04-13T04:21:22.616Z,73.10
2023-04-13T04:23:53.172Z,73.00
2023-04-13T04:26:26.586Z,73.40
2023-04-13T04:29:02.886Z,74.50
2023-04-13T04:31:37.630Z,74.80
2023-04-13T04:34:06.861Z,74.10
2023-04-13T04:36:37.314Z,74.40
2023-04-13T04:39:07.247Z,74.70
2023-04-13T04:41:38.411Z,74.30
2023-04-13T04:44:08.711Z,74.50
2023-04-13T04:46:39.522Z,75.00
2023-04-13T04:49:08.776Z,74.80
2023-04-13T04:51:38.863Z,74.00
2023-04-13T04:54:09.099Z,73.50
2023-04-13T04:56:38.383Z,73.10
2023-04-13T04:59:07.643Z,73.30
2023-04-13T05:01:37.157Z,73.60
2023-04-13T05:04:07.364Z,72.40
2023-04-13T05:06:36.762Z,72.20
2023-04-13T05:09:06.940Z,72.30
2023-04-13T05:11:36.177Z,71.90
2023-04-13T05:14:05.434Z,71.60
2023-04-13T05:16:35.096Z,71.40
2023-04-13T05:19:06.323Z,72.10
2023-04-13T05:21:35.897Z,70.30
2023-04-13T05:24:05.495Z,69.70
2023-04-13T05:26:35.247Z,69.00
2023-04-13T05:29:06.272Z,69.70
2023-04-13T05:31:35.590Z,69.70
2023-04-13T05:34:04.885Z,68.60
2023-04-13T05:36:34.470Z,68.60
2023-04-13T05:39:04.110Z,68.50
2023-04-13T05:41:34.760Z,67.50
2023-04-13T05:44:04.009Z,66.50
2023-04-13T05:46:33.291Z,66.50
2023-04-13T05:49:02.777Z,66.70
2023-04-13T05:51:33.800Z,66.00
2023-04-13T05:54:04.143Z,67.30
2023-04-13T05:56:35.248Z,66.10
2023-04-13T05:59:05.372Z,65.10
2023-04-13T06:01:35.935Z,64.50
2023-04-13T06:04:07.102Z,64.70
2023-04-13T06:06:37.032Z,64.80
2023-04-13T06:09:06.907Z,65.10
2023-04-13T06:11:36.600Z,65.10
2023-04-13T06:14:05.949Z,65.60
2023-04-13T06:16:35.309Z,65.50
2023-04-13T06:19:04.702Z,64.50
2023-04-13T06:21:34.514Z,64.60
2023-04-13T06:24:03.764Z,64.10
2023-04-13T06:26:34.302Z,64.10
2023-04-13T06:29:04.175Z,64.00
2023-04-13T06:31:33.828Z,62.50
2023-04-13T06:34:03.463Z,62.50
2023-04-13T06:36:33.768Z,62.30
2023-04-13T06:39:03.244Z,62.00
2023-04-13T06:41:33.175Z,62.20
2023-04-13T06:44:02.409Z,62.00
2023-04-13T06:46:31.991Z,61.90
2023-04-13T06:49:01.790Z,62.10
2023-04-13T06:51:31.218Z,62.50
2023-04-13T06:54:00.920Z,62.00
2023-04-13T06:56:30.232Z,62.40
2023-04-13T06:59:02.909Z,61.50
2023-04-13T07:01:33.309Z,61.60
2023-04-13T07:04:03.731Z,61.40
2023-04-13T07:06:33.343Z,61.30
2023-04-13T07:09:03.962Z,61.50
2023-04-13T07:11:33.378Z,61.30
2023-04-13T07:14:02.915Z,61.10
2023-04-13T07:16:32.392Z,61.30
2023-04-13T07:19:02.698Z,61.20
2023-04-13T07:21:34.125Z,61.00
2023-04-13T07:24:03.440Z,61.10
2023-04-13T07:26:32.724Z,61.10
2023-04-13T07:29:02.251Z,61.30
2023-04-13T07:31:31.777Z,61.20
2023-04-13T07:34:01.022Z,61.00
2023-04-13T07:36:30.312Z,61.20
2023-04-13T07:38:59.827Z,61.00
2023-04-13T07:41:29.514Z,60.70
2023-04-13T07:43:58.763Z,60.80
2023-04-13T07:46:28.404Z,60.60
2023-04-13T07:48:58.468Z,60.70
2023-04-13T07:51:27.866Z,60.30
2023-04-13T07:53:57.384Z,59.90
2023-04-13T07:56:27.252Z,60.70
2023-04-13T07:58:56.598Z,59.80
2023-04-13T08:01:26.676Z,59.70
2023-04-13T08:03:56.507Z,59.90
2023-04-13T08:06:25.984Z,59.60
2023-04-13T08:08:55.747Z,59.70
2023-04-13T08:11:25.015Z,59.50
2023-04-13T08:13:54.261Z,59.70
2023-04-13T08:16:23.614Z,59.60
2023-04-13T08:18:52.912Z,59.10
2023-04-13T08:21:22.181Z,59.30
2023-04-13T08:23:51.471Z,59.30
2023-04-13T08:26:23.156Z,59.40
2023-04-13T08:28:56.161Z,59.50
2023-04-13T08:31:25.476Z,59.00
2023-04-13T08:33:56.582Z,59.20
2023-04-13T08:36:28.499Z,59.10
2023-04-13T08:38:57.952Z,59.10
2023-04-13T08:41:29.246Z,59.30
2023-04-13T08:43:59.012Z,59.30
2023-04-13T08:46:28.970Z,59.40
2023-04-13T08:49:01.323Z,59.60
2023-04-13T08:51:35.463Z,59.40
2023-04-13T08:54:04.775Z,59.00
2023-04-13T08:56:45.316Z,59.40
2023-04-13T08:59:18.327Z,59.10
2023-04-13T09:01:50.017Z,59.30
2023-04-13T09:04:24.944Z,59.40
2023-04-13T09:06:54.606Z,59.90
2023-04-13T09:09:25.503Z,59.80
2023-04-13T09:11:54.790Z,60.20
2023-04-13T09:14:24.956Z,60.20
2023-04-13T09:16:54.601Z,60.10
2023-04-13T09:19:34.551Z,59.90
2023-04-13T09:22:15.436Z,59.90
2023-04-13T09:24:44.955Z,59.80
2023-04-13T09:27:24.866Z,60.00
2023-04-13T09:29:57.978Z,60.20
2023-04-13T09:32:29.320Z,60.40
2023-04-13T09:35:09.324Z,60.70
2023-04-13T09:37:45.260Z,60.90
2023-04-13T09:40:17.504Z,62.90
2023-04-13T09:43:03.909Z,63.70
2023-04-13T09:45:42.307Z,63.30
2023-04-13T09:48:23.472Z,63.30
2023-04-13T09:51:03.872Z,63.30
2023-04-13T09:53:54.434Z,62.70
2023-04-13T09:56:25.659Z,62.90
2023-04-13T09:58:55.302Z,63.10
2023-04-13T10:01:26.261Z,63.80
2023-04-13T10:03:56.376Z,65.10
2023-04-13T10:06:25.890Z,65.40
2023-04-13T10:08:55.122Z,65.20
2023-04-13T10:11:25.432Z,64.80
2023-04-13T10:14:03.763Z,65.30
2023-04-13T10:16:51.204Z,65.30
2023-04-13T10:19:25.043Z,65.10
2023-04-13T10:21:56.080Z,65.40
2023-04-13T10:24:26.568Z,65.80
2023-04-13T10:26:59.578Z,65.70
2023-04-13T10:29:33.844Z,67.00
2023-04-13T10:32:06.236Z,66.50
2023-04-13T10:34:39.213Z,66.40
2023-04-13T10:37:30.295Z,66.60
2023-04-13T10:40:11.281Z,67.20
2023-04-13T10:42:52.534Z,67.20
2023-04-13T10:45:35.801Z,66.70
2023-04-13T10:48:05.627Z,67.10
2023-04-13T10:50:34.937Z,66.80
2023-04-13T10:53:06.240Z,67.40
2023-04-13T10:55:37.003Z,67.40
2023-04-13T10:58:20.208Z,67.50
2023-04-13T11:00:51.032Z,67.70
2023-04-13T11:03:20.870Z,68.00
2023-04-13T11:06:00.361Z,68.30
2023-04-13T11:08:29.783Z,68.40
2023-04-13T11:10:59.744Z,68.60
2023-04-13T11:13:32.132Z,69.50
2023-04-13T11:16:06.289Z,70.10
2023-04-13T11:18:35.698Z,70.40
2023-04-13T11:21:08.610Z,70.40
2023-04-13T11:44:58.167Z,68.50
2023-04-13T11:47:28.208Z,72.00
2023-04-13T11:49:57.717Z,71.90
2023-04-13T11:52:28.034Z,71.90
2023-04-13T11:55:00.660Z,71.90
2023-04-13T11:57:37.709Z,72.00
2023-04-13T12:00:17.131Z,72.30
2023-04-13T12:03:01.045Z,72.20
2023-04-13T12:05:34.749Z,72.10
2023-04-13T12:08:04.984Z,72.50
2023-04-13T12:10:46.713Z,72.60
2023-04-13T12:13:35.991Z,73.20
2023-04-13T12:16:09.583Z,74.00
2023-04-13T12:18:47.783Z,74.70
2023-04-13T12:21:20.970Z,75.20
2023-04-13T12:23:59.940Z,75.80
2023-04-13T12:27:10.070Z,76.10
2023-04-13T12:29:28.131Z,76.40
2023-04-13T12:32:04.836Z,76.90
2023-04-13T12:34:34.508Z,76.90
2023-04-13T12:37:03.716Z,77.10
2023-04-13T12:39:33.020Z,76.90
2023-04-13T12:42:02.326Z,76.90
2023-04-13T12:44:33.782Z,77.30
2023-04-13T12:47:03.970Z,77.10
2023-04-13T12:49:33.308Z,77.00
2023-04-13T12:52:02.626Z,77.00
2023-04-13T12:54:31.851Z,76.80
2023-04-13T12:57:01.375Z,77.10
2023-04-13T12:59:30.750Z,77.30
2023-04-13T13:02:00.066Z,77.30
2023-04-13T13:04:31.615Z,77.40
2023-04-13T13:07:01.459Z,77.80
2023-04-13T13:09:30.702Z,77.80
2023-04-13T13:12:00.059Z,78.80
2023-04-13T13:14:29.695Z,78.20
2023-04-13T13:16:59.039Z,78.50
2023-04-13T13:19:28.504Z,78.40
2023-04-13T13:21:57.956Z,78.60
2023-04-13T13:24:27.361Z,78.50
2023-04-13T13:29:31.832Z,78.80
2023-04-13T13:32:02.303Z,78.70
2023-04-13T13:34:31.695Z,79.00
2023-04-13T13:37:00.916Z,79.10
2023-04-13T13:39:30.205Z,79.10
2023-04-13T13:42:00.006Z,79.70
2023-04-13T13:44:29.723Z,79.70
2023-04-13T13:46:58.929Z,79.30
2023-04-13T13:49:29.286Z,79.20
2023-04-13T13:51:58.558Z,79.20
2023-04-13T13:54:28.093Z,79.50
2023-04-13T13:56:57.364Z,79.40
2023-04-13T13:59:26.728Z,79.70
2023-04-13T14:01:56.146Z,79.90
2023-04-13T14:04:25.631Z,80.10
2023-04-13T14:06:54.972Z,80.30
2023-04-13T14:09:24.481Z,80.00
2023-04-13T14:11:53.828Z,80.10
2023-04-13T14:14:23.078Z,80.50
2023-04-13T14:16:52.360Z,80.30
2023-04-13T14:19:22.992Z,80.40
2023-04-13T14:21:57.427Z,80.60
2023-04-13T14:24:27.112Z,80.60
2023-04-13T14:26:56.420Z,80.90
2023-04-13T14:29:25.649Z,81.20
2023-04-13T14:31:55.031Z,81.20
2023-04-13T14:34:24.276Z,81.20
2023-04-13T14:36:54.441Z,81.30
2023-04-13T14:39:26.838Z,81.30
2023-04-13T14:41:56.673Z,81.70
2023-04-13T14:44:26.504Z,81.50
2023-04-13T14:46:56.151Z,81.70
2023-04-13T14:49:25.581Z,82.00
2023-04-13T14:51:54.816Z,82.10
2023-04-13T14:54:24.135Z,82.10
2023-04-13T14:56:53.392Z,82.20
2023-04-13T14:59:22.912Z,82.20
2023-04-13T15:01:52.400Z,82.30
2023-04-13T15:04:21.846Z,82.40
2023-04-13T15:06:55.057Z,82.50
2023-04-13T15:09:24.389Z,82.70
2023-04-13T15:11:53.594Z,82.80
2023-04-13T15:14:23.522Z,83.10
2023-04-13T15:16:52.928Z,83.20
2023-04-13T15:19:22.207Z,83.30
2023-04-13T15:21:51.665Z,83.20
2023-04-13T15:24:20.892Z,83.60
2023-04-13T15:26:51.701Z,83.50
2023-04-13T15:29:21.438Z,83.60
2023-04-13T15:31:50.809Z,83.90
2023-04-13T15:34:20.171Z,83.80
2023-04-13T15:36:49.974Z,84.20
2023-04-13T15:39:19.197Z,84.10
2023-04-13T15:41:48.546Z,84.20
2023-04-13T15:44:18.234Z,84.30
2023-04-13T15:46:48.964Z,84.30
2023-04-13T15:49:18.162Z,84.50
2023-04-13T15:51:47.810Z,84.50
2023-04-13T15:54:17.126Z,84.70
2023-04-13T15:56:46.964Z,84.80
2023-04-13T15:59:16.263Z,84.70
2023-04-13T16:01:50.777Z,85.30
2023-04-13T16:04:20.182Z,85.30
2023-04-13T16:07:05.008Z,85.40
2023-04-13T16:09:40.145Z,85.60
2023-04-13T16:12:11.800Z,85.80
2023-04-13T16:14:46.393Z,85.80
2023-04-13T16:17:16.489Z,86.50
2023-04-13T16:19:47.628Z,86.40
2023-04-13T16:22:16.863Z,86.40
2023-04-13T16:24:46.125Z,88.40
2023-04-13T16:27:16.481Z,88.70
2023-04-13T16:29:46.227Z,87.70
2023-04-13T16:32:15.565Z,87.90
2023-04-13T16:34:44.816Z,89.50
2023-04-13T16:37:14.046Z,88.70
2023-04-13T16:39:45.320Z,89.80
2023-04-13T16:42:17.775Z,88.40
2023-04-13T16:44:47.096Z,88.20
2023-04-13T16:47:16.310Z,88.40
2023-04-13T16:49:45.544Z,89.70
2023-04-13T16:52:14.752Z,88.40
2023-04-13T16:54:47.285Z,88.00
2023-04-13T16:57:16.468Z,88.70
2023-04-13T16:59:46.560Z,88.00
2023-04-13T17:02:28.332Z,88.30
2023-04-13T17:05:00.157Z,88.30
2023-04-13T17:07:29.505Z,88.20
2023-04-13T17:09:58.713Z,88.10
2023-04-13T17:12:28.536Z,88.00
2023-04-13T17:14:58.435Z,88.30
2023-04-13T17:17:28.016Z,88.80
2023-04-13T17:19:57.367Z,88.70
2023-04-13T17:22:26.677Z,88.60
2023-04-13T17:24:56.471Z,89.80
2023-04-13T17:27:25.707Z,89.10
2023-04-13T17:29:54.939Z,88.80
2023-04-13T17:32:24.283Z,88.90
2023-04-13T17:34:53.492Z,88.80
2023-04-13T17:37:23.390Z,89.10
2023-04-13T17:39:52.675Z,89.30
2023-04-13T17:42:21.905Z,89.30
2023-04-13T17:44:51.240Z,89.60
2023-04-13T17:47:20.383Z,89.30
2023-04-13T17:49:49.540Z,89.50
2023-04-13T17:52:18.778Z,89.60
2023-04-13T17:54:48.003Z,89.70
2023-04-13T17:57:17.209Z,89.70
2023-04-13T17:59:49.660Z,90.10
2023-04-13T18:02:19.436Z,90.10
2023-04-13T18:04:49.363Z,89.80
2023-04-13T18:07:18.649Z,89.90
2023-04-13T18:09:47.819Z,90.20
2023-04-13T18:12:17.506Z,90.20
2023-04-13T18:14:46.864Z,90.00
2023-04-13T18:17:16.249Z,90.00
2023-04-13T18:19:45.479Z,90.10
2023-04-13T18:22:15.238Z,90.10
2023-04-13T18:24:44.520Z,90.00
2023-04-13T18:27:14.256Z,90.10
2023-04-13T18:29:43.423Z,90.00
2023-04-13T18:32:12.676Z,90.00
2023-04-13T18:34:43.261Z,90.00
2023-04-13T18:37:12.818Z,90.10
2023-04-13T18:39:42.346Z,90.00
2023-04-13T18:42:11.765Z,90.20
2023-04-13T18:44:41.539Z,90.10
2023-04-13T18:47:10.738Z,90.00
2023-04-13T18:49:39.912Z,90.00
2023-04-13T18:52:09.134Z,90.20
2023-04-13T18:54:38.360Z,90.30
2023-04-13T18:57:08.740Z,90.10
2023-04-13T18:59:38.054Z,90.20
2023-04-13T19:02:07.467Z,90.00
2023-04-13T19:04:39.137Z,90.00
2023-04-13T19:07:09.698Z,90.10
2023-04-13T19:09:39.817Z,90.10
2023-04-13T19:12:09.774Z,90.10
2023-04-13T19:14:38.991Z,90.10
2023-04-13T19:17:08.266Z,90.20
2023-04-13T19:19:37.890Z,90.40
2023-04-13T19:22:07.153Z,90.50
2023-04-13T19:24:36.374Z,90.30
2023-04-13T19:27:05.628Z,90.40
2023-04-13T19:29:35.714Z,90.30
2023-04-13T19:32:05.187Z,90.40
2023-04-13T19:34:34.862Z,90.50
2023-04-13T19:37:04.393Z,90.40
2023-04-13T19:39:34.622Z,90.50
2023-04-13T19:42:03.808Z,90.40
2023-04-13T19:44:33.374Z,90.50
2023-04-13T19:47:04.321Z,90.50
2023-04-13T19:49:34.292Z,90.50
2023-04-13T19:52:04.923Z,90.50
2023-04-13T19:54:34.200Z,90.50
2023-04-13T19:57:03.531Z,90.60
2023-04-13T19:59:32.868Z,90.70
2023-04-13T20:02:02.241Z,90.70
2023-04-13T20:04:32.264Z,90.70
2023-04-13T20:07:02.326Z,90.70
2023-04-13T20:09:31.952Z,90.80
2023-04-13T20:12:01.801Z,90.80
2023-04-13T20:14:31.006Z,90.80
2023-04-13T20:17:00.266Z,90.90
2023-04-13T20:19:29.578Z,91.10
2023-04-13T20:22:03.959Z,91.00
2023-04-13T20:24:33.397Z,91.10
2023-04-13T20:27:02.593Z,91.10
2023-04-13T20:29:32.235Z,91.20
2023-04-13T20:32:02.425Z,91.10
2023-04-13T20:34:31.886Z,91.20
2023-04-13T20:37:01.109Z,91.20
2023-04-13T20:39:31.609Z,91.30
2023-04-13T20:42:05.665Z,91.40
2023-04-13T20:44:38.911Z,91.30
2023-04-13T20:47:15.832Z,91.50
2023-04-13T20:49:47.812Z,91.50
2023-04-13T20:52:19.064Z,91.50
2023-04-13T20:54:48.441Z,91.60
2023-04-13T20:57:18.606Z,91.70
2023-04-13T20:59:49.080Z,91.60
2023-04-13T21:02:18.589Z,91.70
2023-04-13T21:04:48.635Z,91.70
2023-04-13T21:07:17.919Z,91.70
2023-04-13T21:09:47.280Z,91.70
2023-04-13T21:12:17.982Z,91.80
2023-04-13T21:14:47.231Z,91.90
2023-04-13T21:17:16.542Z,91.90
2023-04-13T21:19:45.985Z,91.80
2023-04-13T21:22:16.848Z,91.90
2023-04-13T21:24:46.644Z,92.00
2023-04-13T21:27:16.079Z,91.90
2023-04-13T21:29:45.548Z,92.00
2023-04-13T21:32:14.896Z,92.00
2023-04-13T21:34:44.389Z,92.00
2023-04-13T21:37:13.775Z,92.00
2023-04-13T21:39:43.111Z,92.00
2023-04-13T21:42:12.453Z,92.00
2023-04-13T21:44:41.912Z,91.90
2023-04-13T21:47:11.169Z,92.00
2023-04-13T21:49:40.521Z,92.00
2023-04-13T21:52:10.251Z,92.10
2023-04-13T21:54:39.580Z,92.20
2023-04-13T21:57:10.768Z,92.20
2023-04-13T21:59:40.183Z,92.20
2023-04-13T22:02:09.771Z,92.20
2023-04-13T22:04:39.268Z,92.00
2023-04-13T22:07:08.592Z,92.10
2023-04-13T22:09:37.860Z,92.00
2023-04-13T22:12:07.362Z,92.00
2023-04-13T22:14:36.634Z,92.10
2023-04-13T22:17:05.984Z,92.10
2023-04-13T22:19:35.345Z,92.10
2023-04-13T22:22:04.697Z,92.20
2023-04-13T22:24:37.023Z,92.10
2023-04-13T22:27:07.011Z,92.10
2023-04-13T22:29:36.302Z,92.10
2023-04-13T22:32:05.593Z,92.10
2023-04-13T22:34:35.734Z,92.00
2023-04-13T22:37:05.993Z,92.00
2023-04-13T22:39:35.791Z,92.00
2023-04-13T22:42:05.160Z,92.00
2023-04-13T22:44:35.988Z,92.00
2023-04-13T22:47:05.525Z,92.00
2023-04-13T22:49:35.004Z,91.90
2023-04-13T22:52:04.433Z,91.90
2023-04-13T22:54:33.911Z,91.90
2023-04-13T22:57:05.141Z,91.90
2023-04-13T22:59:34.805Z,91.90
2023-04-13T23:02:04.852Z,91.90
2023-04-13T23:04:34.431Z,91.90
2023-04-13T23:07:03.864Z,91.80
2023-04-13T23:09:33.213Z,91.80
2023-04-13T23:12:02.738Z,91.80
2023-04-13T23:14:32.039Z,91.80
2023-04-13T23:17:01.499Z,91.80
2023-04-13T23:19:30.830Z,91.80
2023-04-13T23:22:00.248Z,91.80
2023-04-13T23:24:32.747Z,92.00
2023-04-13T23:27:02.058Z,91.80
2023-04-13T23:29:31.403Z,91.90
2023-04-13T23:32:00.937Z,91.90
2023-04-13T23:34:30.356Z,92.00
2023-04-13T23:36:59.611Z,92.10
2023-04-13T23:39:28.851Z,91.90
2023-04-13T23:41:58.129Z,92.00
2023-04-13T23:44:28.273Z,92.00
2023-04-13T23:46:58.095Z,91.90
2023-04-13T23:49:27.458Z,92.00
2023-04-13T23:51:57.173Z,91.90
2023-04-13T23:54:26.703Z,91.90
2023-04-13T23:56:56.041Z,91.80
2023-04-13T23:59:25.536Z,91.90
